sensor_id;sensor_type;location;lat;lon;timestamp;temperature;humidity
1205;DHT22;592;48.764;9.174;2023-06-22T00:01:00;22.30;99.90
1205;DHT22;592;48.764;9.174;2023-06-22T00:03:27;22.30;99.90
1205;DHT22;592;48.764;9.174;2023-06-22T00:05:53;22.30;99.90
1205;DHT22;592;48.764;9.174;2023-06-22T00:08:21;22.00;99.90
1205;DHT22;592;48.764;9.174;2023-06-22T00:10:48;22.10;99.90
1205;DHT22;592;48.764;9.174;2023-06-22T00:13:15;22.20;99.90
1205;DHT22;592;48.764;9.174;2023-06-22T00:15:43;22.00;99.90
1205;DHT22;592;48.764;9.174;2023-06-22T00:18:10;21.90;99.90
1205;DHT22;592;48.764;9.174;2023-06-22T00:20:38;21.80;99.90
1205;DHT22;592;48.764;9.174;2023-06-22T00:23:06;21.70;99.90
1205;DHT22;592;48.764;9.174;2023-06-22T00:25:35;21.50;99.90
1205;DHT22;592;48.764;9.174;2023-06-22T00:28:02;21.50;99.90
1205;DHT22;592;48.764;9.174;2023-06-22T00:30:30;21.60;99.90
1205;DHT22;592;48.764;9.174;2023-06-22T00:32:59;21.50;99.90
1205;DHT22;592;48.764;9.174;2023-06-22T00:35:27;21.60;99.90
1205;DHT22;592;48.764;9.174;2023-06-22T00:37:54;21.70;99.90
1205;DHT22;592;48.764;9.174;2023-06-22T00:40:26;21.70;99.90
1205;DHT22;592;48.764;9.174;2023-06-22T00:42:55;21.50;99.90
1205;DHT22;592;48.764;9.174;2023-06-22T00:45:22;21.70;99.90
1205;DHT22;592;48.764;9.174;2023-06-22T00:47:50;21.50;99.90
1205;DHT22;592;48.764;9.174;2023-06-22T00:50:20;21.10;99.90
1205;DHT22;592;48.764;9.174;2023-06-22T00:52:49;20.90;99.90
1205;DHT22;592;48.764;9.174;2023-06-22T00:55:18;20.90;99.90
1205;DHT22;592;48.764;9.174;2023-06-22T00:57:46;20.90;99.90
1205;DHT22;592;48.764;9.174;2023-06-22T01:00:15;20.90;99.90
1205;DHT22;592;48.764;9.174;2023-06-22T01:02:46;20.70;99.90
1205;DHT22;592;48.764;9.174;2023-06-22T01:05:17;20.50;99.90
1205;DHT22;592;48.764;9.174;2023-06-22T01:07:51;20.60;99.90
1205;DHT22;592;48.764;9.174;2023-06-22T01:10:25;20.60;99.90
1205;DHT22;592;48.764;9.174;2023-06-22T01:12:57;20.70;99.90
1205;DHT22;592;48.764;9.174;2023-06-22T01:15:29;20.80;99.90
1205;DHT22;592;48.764;9.174;2023-06-22T01:17:59;21.00;99.90
1205;DHT22;592;48.764;9.174;2023-06-22T01:20:30;21.10;99.90
1205;DHT22;592;48.764;9.174;2023-06-22T01:23:05;21.10;99.90
1205;DHT22;592;48.764;9.174;2023-06-22T01:25:38;21.10;99.90
1205;DHT22;592;48.764;9.174;2023-06-22T01:30:53;20.90;99.90
1205;DHT22;592;48.764;9.174;2023-06-22T01:33:30;21.00;99.90
1205;DHT22;592;48.764;9.174;2023-06-22T01:35:58;21.10;99.90
1205;DHT22;592;48.764;9.174;2023-06-22T01:38:26;20.90;99.90
1205;DHT22;592;48.764;9.174;2023-06-22T01:40:55;20.80;99.90
1205;DHT22;592;48.764;9.174;2023-06-22T01:43:24;20.70;99.90
1205;DHT22;592;48.764;9.174;2023-06-22T01:45:53;20.90;99.90
1205;DHT22;592;48.764;9.174;2023-06-22T01:48:20;21.00;99.90
1205;DHT22;592;48.764;9.174;2023-06-22T01:50:47;21.00;99.90
1205;DHT22;592;48.764;9.174;2023-06-22T01:53:14;21.10;99.90
1205;DHT22;592;48.764;9.174;2023-06-22T01:55:41;21.10;99.90
1205;DHT22;592;48.764;9.174;2023-06-22T01:58:08;21.20;99.90
1205;DHT22;592;48.764;9.174;2023-06-22T02:00:37;20.90;99.90
1205;DHT22;592;48.764;9.174;2023-06-22T02:03:11;20.60;99.90
1205;DHT22;592;48.764;9.174;2023-06-22T02:05:46;20.50;99.90
1205;DHT22;592;48.764;9.174;2023-06-22T02:08:17;20.60;99.90
1205;DHT22;592;48.764;9.174;2023-06-22T02:10:47;20.80;99.90
1205;DHT22;592;48.764;9.174;2023-06-22T02:13:15;21.40;99.90
1205;DHT22;592;48.764;9.174;2023-06-22T02:15:43;21.00;99.90
1205;DHT22;592;48.764;9.174;2023-06-22T02:18:12;21.00;99.90
1205;DHT22;592;48.764;9.174;2023-06-22T02:20:39;21.00;99.90
1205;DHT22;592;48.764;9.174;2023-06-22T02:23:06;21.00;99.90
1205;DHT22;592;48.764;9.174;2023-06-22T02:25:34;21.00;99.90
1205;DHT22;592;48.764;9.174;2023-06-22T02:28:01;21.00;99.90
1205;DHT22;592;48.764;9.174;2023-06-22T02:30:27;20.90;99.90
1205;DHT22;592;48.764;9.174;2023-06-22T02:32:54;20.70;99.90
1205;DHT22;592;48.764;9.174;2023-06-22T02:35:25;20.90;99.90
1205;DHT22;592;48.764;9.174;2023-06-22T02:37:52;20.90;99.90
1205;DHT22;592;48.764;9.174;2023-06-22T02:40:19;21.00;99.90
1205;DHT22;592;48.764;9.174;2023-06-22T02:42:46;20.90;99.90
1205;DHT22;592;48.764;9.174;2023-06-22T02:45:13;21.00;99.90
1205;DHT22;592;48.764;9.174;2023-06-22T02:47:40;21.00;99.90
1205;DHT22;592;48.764;9.174;2023-06-22T02:50:07;20.90;99.90
1205;DHT22;592;48.764;9.174;2023-06-22T02:52:36;20.90;99.90
1205;DHT22;592;48.764;9.174;2023-06-22T02:55:04;21.00;99.90
1205;DHT22;592;48.764;9.174;2023-06-22T02:57:31;20.50;99.90
1205;DHT22;592;48.764;9.174;2023-06-22T02:59:57;20.10;99.90
1205;DHT22;592;48.764;9.174;2023-06-22T03:02:24;20.20;99.90
1205;DHT22;592;48.764;9.174;2023-06-22T03:04:52;20.40;99.90
1205;DHT22;592;48.764;9.174;2023-06-22T03:07:19;20.50;99.90
1205;DHT22;592;48.764;9.174;2023-06-22T03:09:47;20.50;99.90
1205;DHT22;592;48.764;9.174;2023-06-22T03:12:14;20.60;99.90
1205;DHT22;592;48.764;9.174;2023-06-22T03:14:40;20.80;99.90
1205;DHT22;592;48.764;9.174;2023-06-22T03:17:07;20.70;99.90
1205;DHT22;592;48.764;9.174;2023-06-22T03:19:34;20.50;99.90
1205;DHT22;592;48.764;9.174;2023-06-22T03:22:01;20.30;99.90
1205;DHT22;592;48.764;9.174;2023-06-22T03:24:27;20.40;99.90
1205;DHT22;592;48.764;9.174;2023-06-22T03:26:56;20.90;99.90
1205;DHT22;592;48.764;9.174;2023-06-22T03:29:23;21.90;99.90
1205;DHT22;592;48.764;9.174;2023-06-22T03:31:50;20.40;99.90
1205;DHT22;592;48.764;9.174;2023-06-22T03:34:17;20.00;99.90
1205;DHT22;592;48.764;9.174;2023-06-22T03:36:44;20.00;99.90
1205;DHT22;592;48.764;9.174;2023-06-22T03:39:11;20.10;99.90
1205;DHT22;592;48.764;9.174;2023-06-22T03:41:38;20.20;99.90
1205;DHT22;592;48.764;9.174;2023-06-22T03:44:06;20.30;99.90
1205;DHT22;592;48.764;9.174;2023-06-22T03:46:36;20.40;99.90
1205;DHT22;592;48.764;9.174;2023-06-22T03:49:02;20.50;99.90
1205;DHT22;592;48.764;9.174;2023-06-22T03:51:30;21.20;99.90
1205;DHT22;592;48.764;9.174;2023-06-22T03:53:57;20.30;99.90
1205;DHT22;592;48.764;9.174;2023-06-22T03:56:24;20.10;99.90
1205;DHT22;592;48.764;9.174;2023-06-22T03:58:50;20.30;99.90
1205;DHT22;592;48.764;9.174;2023-06-22T04:01:19;20.40;99.90
1205;DHT22;592;48.764;9.174;2023-06-22T04:03:45;20.50;99.90
1205;DHT22;592;48.764;9.174;2023-06-22T04:06:15;20.60;99.90
1205;DHT22;592;48.764;9.174;2023-06-22T04:08:42;20.70;99.90
1205;DHT22;592;48.764;9.174;2023-06-22T04:11:08;20.50;99.90
1205;DHT22;592;48.764;9.174;2023-06-22T04:13:35;20.00;99.90
1205;DHT22;592;48.764;9.174;2023-06-22T04:16:02;20.00;99.90
1205;DHT22;592;48.764;9.174;2023-06-22T04:18:31;20.30;99.90
1205;DHT22;592;48.764;9.174;2023-06-22T04:20:57;20.60;99.90
1205;DHT22;592;48.764;9.174;2023-06-22T04:23:24;20.80;99.90
1205;DHT22;592;48.764;9.174;2023-06-22T04:25:51;20.90;99.90
1205;DHT22;592;48.764;9.174;2023-06-22T04:28:18;21.00;99.90
1205;DHT22;592;48.764;9.174;2023-06-22T04:30:45;21.00;99.90
1205;DHT22;592;48.764;9.174;2023-06-22T04:33:13;20.90;99.90
1205;DHT22;592;48.764;9.174;2023-06-22T04:35:41;20.80;99.90
1205;DHT22;592;48.764;9.174;2023-06-22T04:38:08;20.80;99.90
1205;DHT22;592;48.764;9.174;2023-06-22T04:40:38;21.00;99.90
1205;DHT22;592;48.764;9.174;2023-06-22T04:43:05;21.10;99.90
1205;DHT22;592;48.764;9.174;2023-06-22T04:45:32;21.30;99.90
1205;DHT22;592;48.764;9.174;2023-06-22T04:47:59;21.30;99.90
1205;DHT22;592;48.764;9.174;2023-06-22T04:50:26;21.40;99.90
1205;DHT22;592;48.764;9.174;2023-06-22T04:52:54;21.50;99.90
1205;DHT22;592;48.764;9.174;2023-06-22T04:55:20;21.70;99.90
1205;DHT22;592;48.764;9.174;2023-06-22T04:57:48;21.80;99.90
1205;DHT22;592;48.764;9.174;2023-06-22T05:00:16;21.80;99.90
1205;DHT22;592;48.764;9.174;2023-06-22T05:02:43;21.90;99.90
1205;DHT22;592;48.764;9.174;2023-06-22T05:05:11;22.10;99.90
1205;DHT22;592;48.764;9.174;2023-06-22T05:07:39;22.20;99.90
1205;DHT22;592;48.764;9.174;2023-06-22T05:10:10;22.30;99.90
1205;DHT22;592;48.764;9.174;2023-06-22T05:12:38;22.40;99.90
1205;DHT22;592;48.764;9.174;2023-06-22T05:15:06;22.50;99.90
1205;DHT22;592;48.764;9.174;2023-06-22T05:17:33;22.40;99.90
1205;DHT22;592;48.764;9.174;2023-06-22T05:20:00;22.40;99.90
1205;DHT22;592;48.764;9.174;2023-06-22T05:22:27;22.50;99.90
1205;DHT22;592;48.764;9.174;2023-06-22T05:24:54;22.60;99.90
1205;DHT22;592;48.764;9.174;2023-06-22T05:27:22;22.70;99.90
1205;DHT22;592;48.764;9.174;2023-06-22T05:29:49;22.40;99.90
1205;DHT22;592;48.764;9.174;2023-06-22T05:32:15;22.60;99.90
1205;DHT22;592;48.764;9.174;2023-06-22T05:34:42;22.40;99.90
1205;DHT22;592;48.764;9.174;2023-06-22T05:37:09;22.30;99.90
1205;DHT22;592;48.764;9.174;2023-06-22T05:39:36;22.30;99.90
1205;DHT22;592;48.764;9.174;2023-06-22T05:42:04;22.50;99.90
1205;DHT22;592;48.764;9.174;2023-06-22T05:44:33;22.70;99.90
1205;DHT22;592;48.764;9.174;2023-06-22T05:47:00;22.90;99.90
1205;DHT22;592;48.764;9.174;2023-06-22T05:49:27;22.70;99.90
1205;DHT22;592;48.764;9.174;2023-06-22T05:51:58;22.50;99.90
1205;DHT22;592;48.764;9.174;2023-06-22T05:54:25;22.80;99.90
1205;DHT22;592;48.764;9.174;2023-06-22T05:56:51;22.50;99.90
1205;DHT22;592;48.764;9.174;2023-06-22T05:59:18;22.50;99.90
1205;DHT22;592;48.764;9.174;2023-06-22T06:01:46;22.60;99.90
1205;DHT22;592;48.764;9.174;2023-06-22T06:04:16;22.60;99.90
1205;DHT22;592;48.764;9.174;2023-06-22T06:06:42;23.70;99.90
1205;DHT22;592;48.764;9.174;2023-06-22T06:09:09;22.40;99.90
1205;DHT22;592;48.764;9.174;2023-06-22T06:11:37;22.40;99.90
1205;DHT22;592;48.764;9.174;2023-06-22T06:14:03;22.30;99.90
1205;DHT22;592;48.764;9.174;2023-06-22T06:16:30;22.40;99.90
1205;DHT22;592;48.764;9.174;2023-06-22T06:18:58;22.40;99.90
1205;DHT22;592;48.764;9.174;2023-06-22T06:21:25;22.70;99.90
1205;DHT22;592;48.764;9.174;2023-06-22T06:23:55;22.70;99.90
1205;DHT22;592;48.764;9.174;2023-06-22T06:26:22;22.90;99.90
1205;DHT22;592;48.764;9.174;2023-06-22T06:28:53;23.00;99.90
1205;DHT22;592;48.764;9.174;2023-06-22T06:31:20;22.90;99.90
1205;DHT22;592;48.764;9.174;2023-06-22T06:33:47;22.80;99.90
1205;DHT22;592;48.764;9.174;2023-06-22T06:36:15;22.80;99.90
1205;DHT22;592;48.764;9.174;2023-06-22T06:38:42;23.00;99.90
1205;DHT22;592;48.764;9.174;2023-06-22T06:41:09;23.30;99.90
1205;DHT22;592;48.764;9.174;2023-06-22T06:43:35;23.40;99.90
1205;DHT22;592;48.764;9.174;2023-06-22T06:46:02;22.80;99.90
1205;DHT22;592;48.764;9.174;2023-06-22T06:48:31;23.70;99.90
1205;DHT22;592;48.764;9.174;2023-06-22T06:50:58;24.70;99.90
1205;DHT22;592;48.764;9.174;2023-06-22T06:53:26;23.90;99.90
1205;DHT22;592;48.764;9.174;2023-06-22T06:55:54;23.70;99.90
1205;DHT22;592;48.764;9.174;2023-06-22T06:58:20;24.30;99.90
1205;DHT22;592;48.764;9.174;2023-06-22T07:00:48;24.00;99.90
1205;DHT22;592;48.764;9.174;2023-06-22T07:03:15;23.90;99.90
1205;DHT22;592;48.764;9.174;2023-06-22T07:05:41;24.00;99.90
1205;DHT22;592;48.764;9.174;2023-06-22T07:08:08;24.10;99.90
1205;DHT22;592;48.764;9.174;2023-06-22T07:10:36;24.10;99.90
1205;DHT22;592;48.764;9.174;2023-06-22T07:13:03;24.20;99.90
1205;DHT22;592;48.764;9.174;2023-06-22T07:15:30;24.20;99.90
1205;DHT22;592;48.764;9.174;2023-06-22T07:17:56;24.10;99.90
1205;DHT22;592;48.764;9.174;2023-06-22T07:20:23;24.10;99.90
1205;DHT22;592;48.764;9.174;2023-06-22T07:22:51;24.20;99.90
1205;DHT22;592;48.764;9.174;2023-06-22T07:25:18;24.40;99.90
1205;DHT22;592;48.764;9.174;2023-06-22T07:27:57;24.60;99.90
1205;DHT22;592;48.764;9.174;2023-06-22T07:30:25;24.70;99.90
1205;DHT22;592;48.764;9.174;2023-06-22T07:32:52;24.70;99.90
1205;DHT22;592;48.764;9.174;2023-06-22T07:35:20;24.90;99.90
1205;DHT22;592;48.764;9.174;2023-06-22T07:37:47;25.40;99.90
1205;DHT22;592;48.764;9.174;2023-06-22T07:40:13;24.90;99.90
1205;DHT22;592;48.764;9.174;2023-06-22T07:42:40;24.80;99.90
1205;DHT22;592;48.764;9.174;2023-06-22T07:45:11;25.00;99.90
1205;DHT22;592;48.764;9.174;2023-06-22T07:47:37;25.00;99.90
1205;DHT22;592;48.764;9.174;2023-06-22T07:50:05;25.10;99.90
1205;DHT22;592;48.764;9.174;2023-06-22T07:52:32;25.30;99.90
1205;DHT22;592;48.764;9.174;2023-06-22T07:54:59;25.00;99.90
1205;DHT22;592;48.764;9.174;2023-06-22T07:57:26;25.60;99.90
1205;DHT22;592;48.764;9.174;2023-06-22T07:59:58;25.60;99.90
1205;DHT22;592;48.764;9.174;2023-06-22T08:02:27;25.60;99.90
1205;DHT22;592;48.764;9.174;2023-06-22T08:04:53;26.40;99.90
1205;DHT22;592;48.764;9.174;2023-06-22T08:07:20;26.00;99.90
1205;DHT22;592;48.764;9.174;2023-06-22T08:09:48;26.10;99.90
1205;DHT22;592;48.764;9.174;2023-06-22T08:12:15;26.20;99.90
1205;DHT22;592;48.764;9.174;2023-06-22T08:14:43;26.40;99.90
1205;DHT22;592;48.764;9.174;2023-06-22T08:17:11;26.80;99.90
1205;DHT22;592;48.764;9.174;2023-06-22T08:19:40;26.70;99.90
1205;DHT22;592;48.764;9.174;2023-06-22T08:22:06;27.40;99.90
1205;DHT22;592;48.764;9.174;2023-06-22T08:24:33;26.70;99.90
1205;DHT22;592;48.764;9.174;2023-06-22T08:27:00;26.90;99.90
1205;DHT22;592;48.764;9.174;2023-06-22T08:29:27;26.80;99.90
1205;DHT22;592;48.764;9.174;2023-06-22T08:31:54;26.80;99.90
1205;DHT22;592;48.764;9.174;2023-06-22T08:34:21;27.00;99.90
1205;DHT22;592;48.764;9.174;2023-06-22T08:36:50;28.20;99.90
1205;DHT22;592;48.764;9.174;2023-06-22T08:39:18;26.90;99.90
1205;DHT22;592;48.764;9.174;2023-06-22T08:41:45;27.80;99.90
1205;DHT22;592;48.764;9.174;2023-06-22T08:44:12;27.60;99.90
1205;DHT22;592;48.764;9.174;2023-06-22T08:46:38;27.70;99.90
1205;DHT22;592;48.764;9.174;2023-06-22T08:49:06;27.30;99.90
1205;DHT22;592;48.764;9.174;2023-06-22T08:51:33;26.80;99.90
1205;DHT22;592;48.764;9.174;2023-06-22T08:54:03;27.40;99.90
1205;DHT22;592;48.764;9.174;2023-06-22T08:56:30;27.60;99.90
1205;DHT22;592;48.764;9.174;2023-06-22T08:58:57;27.60;99.90
1205;DHT22;592;48.764;9.174;2023-06-22T09:01:23;27.80;99.90
1205;DHT22;592;48.764;9.174;2023-06-22T09:03:50;28.10;99.90
1205;DHT22;592;48.764;9.174;2023-06-22T09:06:22;28.00;99.90
1205;DHT22;592;48.764;9.174;2023-06-22T09:08:49;27.90;99.90
1205;DHT22;592;48.764;9.174;2023-06-22T09:11:17;27.80;99.90
1205;DHT22;592;48.764;9.174;2023-06-22T09:13:44;27.70;99.90
1205;DHT22;592;48.764;9.174;2023-06-22T09:16:12;27.60;99.90
1205;DHT22;592;48.764;9.174;2023-06-22T09:18:39;27.70;99.90
1205;DHT22;592;48.764;9.174;2023-06-22T09:21:06;28.00;99.90
1205;DHT22;592;48.764;9.174;2023-06-22T09:23:45;27.90;99.90
1205;DHT22;592;48.764;9.174;2023-06-22T09:26:27;28.10;99.90
1205;DHT22;592;48.764;9.174;2023-06-22T09:28:54;28.00;99.90
1205;DHT22;592;48.764;9.174;2023-06-22T09:31:22;28.50;99.90
1205;DHT22;592;48.764;9.174;2023-06-22T09:33:51;28.30;99.90
1205;DHT22;592;48.764;9.174;2023-06-22T09:36:18;28.30;99.90
1205;DHT22;592;48.764;9.174;2023-06-22T09:38:45;28.30;99.90
1205;DHT22;592;48.764;9.174;2023-06-22T09:41:20;28.60;99.90
1205;DHT22;592;48.764;9.174;2023-06-22T10:19:01;29.30;99.90
1205;DHT22;592;48.764;9.174;2023-06-22T10:49:45;30.30;99.90
1205;DHT22;592;48.764;9.174;2023-06-22T10:52:12;30.20;99.80
1205;DHT22;592;48.764;9.174;2023-06-22T10:54:39;30.40;99.90
1205;DHT22;592;48.764;9.174;2023-06-22T10:57:06;30.10;99.90
1205;DHT22;592;48.764;9.174;2023-06-22T10:59:33;30.10;99.90
1205;DHT22;592;48.764;9.174;2023-06-22T11:02:00;30.10;99.90
1205;DHT22;592;48.764;9.174;2023-06-22T11:04:27;30.10;99.90
1205;DHT22;592;48.764;9.174;2023-06-22T11:06:56;30.20;99.90
1205;DHT22;592;48.764;9.174;2023-06-22T11:09:23;30.10;99.90
1205;DHT22;592;48.764;9.174;2023-06-22T11:11:51;30.20;99.90
1205;DHT22;592;48.764;9.174;2023-06-22T11:14:19;30.10;99.90
1205;DHT22;592;48.764;9.174;2023-06-22T11:16:45;30.20;99.90
1205;DHT22;592;48.764;9.174;2023-06-22T11:19:15;30.30;99.90
1205;DHT22;592;48.764;9.174;2023-06-22T11:21:42;30.20;99.90
1205;DHT22;592;48.764;9.174;2023-06-22T11:24:11;30.40;99.90
1205;DHT22;592;48.764;9.174;2023-06-22T11:26:49;30.10;99.60
1205;DHT22;592;48.764;9.174;2023-06-22T11:29:16;30.20;99.90
1205;DHT22;592;48.764;9.174;2023-06-22T11:31:43;30.20;99.40
1205;DHT22;592;48.764;9.174;2023-06-22T11:34:12;30.30;99.90
1205;DHT22;592;48.764;9.174;2023-06-22T11:36:40;30.40;99.90
1205;DHT22;592;48.764;9.174;2023-06-22T11:39:08;30.40;99.70
1205;DHT22;592;48.764;9.174;2023-06-22T11:41:38;30.60;99.90
1205;DHT22;592;48.764;9.174;2023-06-22T11:44:04;30.80;99.90
1205;DHT22;592;48.764;9.174;2023-06-22T11:46:32;31.00;99.90
1205;DHT22;592;48.764;9.174;2023-06-22T11:48:59;31.10;99.90
1205;DHT22;592;48.764;9.174;2023-06-22T11:51:25;31.20;99.90
1205;DHT22;592;48.764;9.174;2023-06-22T11:53:53;31.10;99.90
1205;DHT22;592;48.764;9.174;2023-06-22T11:56:20;31.10;99.90
1205;DHT22;592;48.764;9.174;2023-06-22T11:58:48;31.10;99.90
1205;DHT22;592;48.764;9.174;2023-06-22T12:01:16;30.90;99.90
1205;DHT22;592;48.764;9.174;2023-06-22T12:03:42;31.00;99.90
1205;DHT22;592;48.764;9.174;2023-06-22T12:06:09;31.00;99.90
1205;DHT22;592;48.764;9.174;2023-06-22T12:08:37;31.00;99.90
1205;DHT22;592;48.764;9.174;2023-06-22T12:11:03;31.70;99.90
1205;DHT22;592;48.764;9.174;2023-06-22T12:13:30;30.90;99.90
1205;DHT22;592;48.764;9.174;2023-06-22T12:15:58;30.70;99.80
1205;DHT22;592;48.764;9.174;2023-06-22T12:18:25;30.70;99.90
1205;DHT22;592;48.764;9.174;2023-06-22T12:20:51;30.70;99.70
1205;DHT22;592;48.764;9.174;2023-06-22T12:23:18;30.60;99.80
1205;DHT22;592;48.764;9.174;2023-06-22T12:25:45;30.70;99.90
1205;DHT22;592;48.764;9.174;2023-06-22T12:28:12;30.70;99.60
1205;DHT22;592;48.764;9.174;2023-06-22T12:30:39;30.80;99.80
1205;DHT22;592;48.764;9.174;2023-06-22T12:33:07;30.90;99.90
1205;DHT22;592;48.764;9.174;2023-06-22T12:35:48;30.80;99.90
1205;DHT22;592;48.764;9.174;2023-06-22T12:38:15;30.80;99.90
1205;DHT22;592;48.764;9.174;2023-06-22T12:40:42;30.70;99.90
1205;DHT22;592;48.764;9.174;2023-06-22T12:43:08;30.50;99.90
1205;DHT22;592;48.764;9.174;2023-06-22T12:45:35;30.50;99.90
1205;DHT22;592;48.764;9.174;2023-06-22T12:48:03;30.40;99.90
1205;DHT22;592;48.764;9.174;2023-06-22T12:50:40;30.60;99.90
1205;DHT22;592;48.764;9.174;2023-06-22T12:53:07;30.70;99.90
1205;DHT22;592;48.764;9.174;2023-06-22T12:55:33;30.80;99.90
1205;DHT22;592;48.764;9.174;2023-06-22T12:58:00;30.80;99.90
1205;DHT22;592;48.764;9.174;2023-06-22T13:00:27;30.70;99.90
1205;DHT22;592;48.764;9.174;2023-06-22T13:02:53;30.60;99.90
1205;DHT22;592;48.764;9.174;2023-06-22T13:05:20;30.50;99.90
1205;DHT22;592;48.764;9.174;2023-06-22T13:07:49;30.50;99.90
1205;DHT22;592;48.764;9.174;2023-06-22T13:10:16;30.40;99.90
1205;DHT22;592;48.764;9.174;2023-06-22T13:12:42;30.40;99.90
1205;DHT22;592;48.764;9.174;2023-06-22T13:15:09;30.40;99.90
1205;DHT22;592;48.764;9.174;2023-06-22T13:17:36;30.10;99.90
1205;DHT22;592;48.764;9.174;2023-06-22T13:20:03;30.20;99.90
1205;DHT22;592;48.764;9.174;2023-06-22T13:22:32;30.30;99.90
1205;DHT22;592;48.764;9.174;2023-06-22T13:25:07;30.50;99.90
1205;DHT22;592;48.764;9.174;2023-06-22T13:27:37;30.70;99.90
1205;DHT22;592;48.764;9.174;2023-06-22T13:30:07;30.60;99.80
1205;DHT22;592;48.764;9.174;2023-06-22T13:32:34;30.70;99.80
1205;DHT22;592;48.764;9.174;2023-06-22T13:35:01;30.50;99.90
1205;DHT22;592;48.764;9.174;2023-06-22T13:37:27;30.40;99.90
1205;DHT22;592;48.764;9.174;2023-06-22T13:39:54;30.40;99.90
1205;DHT22;592;48.764;9.174;2023-06-22T13:42:24;30.60;99.90
1205;DHT22;592;48.764;9.174;2023-06-22T13:44:50;30.80;99.90
1205;DHT22;592;48.764;9.174;2023-06-22T13:47:17;30.90;99.90
1205;DHT22;592;48.764;9.174;2023-06-22T13:49:44;31.00;99.90
1205;DHT22;592;48.764;9.174;2023-06-22T13:52:10;31.10;99.90
1205;DHT22;592;48.764;9.174;2023-06-22T13:54:38;31.00;99.40
1205;DHT22;592;48.764;9.174;2023-06-22T13:57:05;31.00;98.80
1205;DHT22;592;48.764;9.174;2023-06-22T13:59:34;31.00;99.00
1205;DHT22;592;48.764;9.174;2023-06-22T14:02:01;31.00;99.40
1205;DHT22;592;48.764;9.174;2023-06-22T14:04:27;31.00;99.20
1205;DHT22;592;48.764;9.174;2023-06-22T14:06:54;31.10;99.20
1205;DHT22;592;48.764;9.174;2023-06-22T14:09:21;31.30;99.60
1205;DHT22;592;48.764;9.174;2023-06-22T14:11:48;31.40;99.40
1205;DHT22;592;48.764;9.174;2023-06-22T14:14:14;31.60;98.80
1205;DHT22;592;48.764;9.174;2023-06-22T14:16:42;31.90;98.90
1205;DHT22;592;48.764;9.174;2023-06-22T14:19:09;32.30;98.40
1205;DHT22;592;48.764;9.174;2023-06-22T14:21:36;32.50;97.40
1205;DHT22;592;48.764;9.174;2023-06-22T14:24:03;32.60;97.50
1205;DHT22;592;48.764;9.174;2023-06-22T14:26:30;32.60;97.40
1205;DHT22;592;48.764;9.174;2023-06-22T14:28:56;32.30;95.40
1205;DHT22;592;48.764;9.174;2023-06-22T14:31:23;32.00;95.50
1205;DHT22;592;48.764;9.174;2023-06-22T14:33:51;31.90;95.40
1205;DHT22;592;48.764;9.174;2023-06-22T14:36:18;31.90;94.60
1205;DHT22;592;48.764;9.174;2023-06-22T14:38:45;32.30;96.00
1205;DHT22;592;48.764;9.174;2023-06-22T14:41:12;32.60;93.90
1205;DHT22;592;48.764;9.174;2023-06-22T14:43:44;33.20;93.90
1205;DHT22;592;48.764;9.174;2023-06-22T14:46:11;33.60;93.50
1205;DHT22;592;48.764;9.174;2023-06-22T14:48:37;33.60;93.40
1205;DHT22;592;48.764;9.174;2023-06-22T14:51:05;34.20;92.90
1205;DHT22;592;48.764;9.174;2023-06-22T14:53:32;34.10;90.20
1205;DHT22;592;48.764;9.174;2023-06-22T14:55:59;34.30;88.20
1205;DHT22;592;48.764;9.174;2023-06-22T14:58:27;33.30;83.00
1205;DHT22;592;48.764;9.174;2023-06-22T15:00:55;33.00;88.00
1205;DHT22;592;48.764;9.174;2023-06-22T15:03:22;33.30;88.10
1205;DHT22;592;48.764;9.174;2023-06-22T15:05:53;33.60;85.60
1205;DHT22;592;48.764;9.174;2023-06-22T15:08:21;32.80;84.90
1205;DHT22;592;48.764;9.174;2023-06-22T15:10:48;33.00;87.90
1205;DHT22;592;48.764;9.174;2023-06-22T15:13:15;32.60;84.20
1205;DHT22;592;48.764;9.174;2023-06-22T15:15:44;32.40;85.60
1205;DHT22;592;48.764;9.174;2023-06-22T15:18:10;32.00;83.60
1205;DHT22;592;48.764;9.174;2023-06-22T15:20:37;32.10;84.70
1205;DHT22;592;48.764;9.174;2023-06-22T15:23:09;31.90;86.50
1205;DHT22;592;48.764;9.174;2023-06-22T15:25:37;32.10;86.60
1205;DHT22;592;48.764;9.174;2023-06-22T15:28:04;32.20;85.90
1205;DHT22;592;48.764;9.174;2023-06-22T15:30:30;32.00;86.60
1205;DHT22;592;48.764;9.174;2023-06-22T15:32:57;31.90;85.50
1205;DHT22;592;48.764;9.174;2023-06-22T15:35:24;31.70;84.20
1205;DHT22;592;48.764;9.174;2023-06-22T15:37:51;31.60;86.30
1205;DHT22;592;48.764;9.174;2023-06-22T15:40:18;31.60;87.90
1205;DHT22;592;48.764;9.174;2023-06-22T15:42:50;31.80;87.80
1205;DHT22;592;48.764;9.174;2023-06-22T15:45:17;31.70;85.30
1205;DHT22;592;48.764;9.174;2023-06-22T15:47:47;31.50;84.70
1205;DHT22;592;48.764;9.174;2023-06-22T15:50:24;32.30;85.10
1205;DHT22;592;48.764;9.174;2023-06-22T15:52:54;31.10;86.40
1205;DHT22;592;48.764;9.174;2023-06-22T15:55:22;31.10;86.90
1205;DHT22;592;48.764;9.174;2023-06-22T16:00:29;31.00;86.50
1205;DHT22;592;48.764;9.174;2023-06-22T16:02:58;30.70;86.60
1205;DHT22;592;48.764;9.174;2023-06-22T16:05:24;30.80;87.90
1205;DHT22;592;48.764;9.174;2023-06-22T16:07:54;30.80;87.60
1205;DHT22;592;48.764;9.174;2023-06-22T16:10:21;30.80;88.90
1205;DHT22;592;48.764;9.174;2023-06-22T16:12:48;30.90;89.00
1205;DHT22;592;48.764;9.174;2023-06-22T16:15:15;30.80;88.30
1205;DHT22;592;48.764;9.174;2023-06-22T16:17:43;30.90;88.70
1205;DHT22;592;48.764;9.174;2023-06-22T16:20:11;30.50;88.10
1205;DHT22;592;48.764;9.174;2023-06-22T16:22:37;30.30;89.70
1205;DHT22;592;48.764;9.174;2023-06-22T16:25:04;30.30;89.50
1205;DHT22;592;48.764;9.174;2023-06-22T16:27:31;30.30;89.90
1205;DHT22;592;48.764;9.174;2023-06-22T16:29:58;30.30;90.30
1205;DHT22;592;48.764;9.174;2023-06-22T16:32:25;30.30;90.80
1205;DHT22;592;48.764;9.174;2023-06-22T16:34:53;30.20;89.70
1205;DHT22;592;48.764;9.174;2023-06-22T16:37:20;30.00;90.70
1205;DHT22;592;48.764;9.174;2023-06-22T16:39:47;29.80;89.70
1205;DHT22;592;48.764;9.174;2023-06-22T16:42:14;29.80;90.40
1205;DHT22;592;48.764;9.174;2023-06-22T16:44:43;29.80;90.30
1205;DHT22;592;48.764;9.174;2023-06-22T16:52:33;29.60;91.00
1205;DHT22;592;48.764;9.174;2023-06-22T16:55:00;29.70;90.70
1205;DHT22;592;48.764;9.174;2023-06-22T16:57:27;29.50;90.50
1205;DHT22;592;48.764;9.174;2023-06-22T16:59:53;29.70;90.60
1205;DHT22;592;48.764;9.174;2023-06-22T17:02:29;29.70;90.60
1205;DHT22;592;48.764;9.174;2023-06-22T17:05:26;29.60;90.70
1205;DHT22;592;48.764;9.174;2023-06-22T17:07:57;29.60;91.00
1205;DHT22;592;48.764;9.174;2023-06-22T17:10:27;29.50;91.00
1205;DHT22;592;48.764;9.174;2023-06-22T17:13:11;29.40;91.60
1205;DHT22;592;48.764;9.174;2023-06-22T17:15:39;29.40;91.50
1205;DHT22;592;48.764;9.174;2023-06-22T17:18:07;29.50;91.70
1205;DHT22;592;48.764;9.174;2023-06-22T17:20:38;29.40;91.80
1205;DHT22;592;48.764;9.174;2023-06-22T17:23:09;29.60;92.10
1205;DHT22;592;48.764;9.174;2023-06-22T17:25:36;29.30;92.00
1205;DHT22;592;48.764;9.174;2023-06-22T17:28:03;30.30;92.40
1205;DHT22;592;48.764;9.174;2023-06-22T17:30:30;29.10;91.60
1205;DHT22;592;48.764;9.174;2023-06-22T17:32:58;29.00;91.10
1205;DHT22;592;48.764;9.174;2023-06-22T17:35:26;28.60;90.90